createdAt,value
2018-12-15T00:00:05.246Z,5.73
2018-12-15T00:02:39.371Z,6.17
2018-12-15T00:05:13.751Z,5.90
2018-12-15T00:07:46.218Z,6.23
2018-12-15T00:10:18.060Z,6.93
2018-12-15T00:12:48.875Z,5.53
2018-12-15T00:15:21.510Z,6.00
2018-12-15T00:17:54.233Z,5.70
2018-12-15T00:20:26.945Z,5.47
2018-12-15T00:22:58.938Z,4.90
2018-12-15T00:25:30.883Z,5.40
2018-12-15T00:28:01.610Z,4.80
2018-12-15T00:30:34.406Z,5.30
2018-12-15T00:33:06.366Z,5.73
2018-12-15T00:35:39.400Z,5.43
2018-12-15T00:38:11.841Z,4.47
2018-12-15T00:40:43.701Z,5.30
2018-12-15T00:43:16.460Z,5.30
2018-12-15T00:45:49.106Z,4.90
2018-12-15T00:48:20.636Z,5.00
2018-12-15T00:50:52.673Z,4.83
2018-12-15T00:53:23.494Z,4.40
2018-12-15T00:55:55.309Z,4.87
2018-12-15T00:58:27.119Z,4.80
2018-12-15T01:00:59.759Z,4.80
2018-12-15T01:03:30.571Z,5.03
2018-12-15T01:06:02.408Z,4.70
2018-12-15T01:08:35.055Z,4.77
2018-12-15T01:11:07.682Z,4.20
2018-12-15T01:13:40.443Z,4.47
2018-12-15T01:16:12.189Z,4.50
2018-12-15T01:18:42.934Z,3.87
2018-12-15T01:21:14.722Z,3.83
2018-12-15T01:23:47.476Z,3.67
2018-12-15T01:26:34.107Z,4.07
2018-12-15T01:32:06.484Z,4.00
2018-12-15T01:34:38.673Z,4.30
2018-12-15T01:37:15.452Z,4.07
2018-12-15T01:39:52.154Z,3.70
2018-12-15T01:42:37.827Z,3.57
2018-12-15T01:45:10.973Z,4.13
2018-12-15T01:50:56.393Z,3.90
2018-12-15T01:53:32.799Z,3.70
2018-12-15T01:56:09.985Z,3.47
2018-12-15T01:58:55.552Z,2.83
2018-12-15T02:01:33.424Z,2.90
2018-12-15T02:04:19.765Z,3.40
2018-12-15T02:07:03.526Z,3.17
2018-12-15T02:09:40.012Z,3.60
2018-12-15T02:12:17.702Z,2.37
2018-12-15T02:15:02.457Z,3.23
2018-12-15T02:17:38.959Z,3.27
2018-12-15T02:25:28.671Z,2.77
2018-12-15T02:41:04.142Z,2.90
2018-12-15T02:51:38.650Z,2.33
2018-12-15T02:54:24.147Z,2.93
2018-12-15T02:57:00.693Z,2.57
2018-12-15T02:59:37.325Z,3.30
2018-12-15T03:02:23.383Z,2.83
2018-12-15T03:04:59.880Z,3.30
2018-12-15T03:07:36.459Z,3.30
2018-12-15T03:10:21.332Z,3.30
2018-12-15T03:12:57.783Z,3.70
2018-12-15T03:15:34.832Z,3.37
2018-12-15T03:18:20.414Z,3.63
2018-12-15T03:21:00.239Z,3.33
2018-12-15T03:23:37.012Z,3.57
2018-12-15T03:26:22.101Z,3.30
2018-12-15T03:28:59.409Z,3.70
2018-12-15T03:31:35.946Z,3.57
2018-12-15T03:34:20.835Z,3.80
2018-12-15T03:36:57.241Z,3.43
2018-12-15T03:39:34.091Z,3.27
2018-12-15T03:42:19.117Z,3.30
2018-12-15T03:45:04.512Z,3.20
2018-12-15T03:47:42.882Z,3.07
2018-12-15T03:50:27.774Z,3.53
2018-12-15T03:53:04.261Z,3.10
2018-12-15T03:55:40.809Z,3.30
2018-12-15T03:58:25.724Z,1.73
2018-12-15T04:01:02.316Z,2.87
2018-12-15T04:03:39.846Z,2.57
2018-12-15T04:06:24.613Z,2.20
2018-12-15T04:09:10.207Z,1.97
2018-12-15T04:11:47.487Z,2.13
2018-12-15T04:14:32.971Z,2.33
2018-12-15T04:17:09.414Z,2.23
2018-12-15T04:19:46.182Z,2.40
2018-12-15T04:22:31.728Z,2.30
2018-12-15T04:25:09.025Z,1.93
2018-12-15T04:27:45.041Z,2.30
2018-12-15T04:33:31.043Z,1.87
2018-12-15T04:36:15.865Z,2.03
2018-12-15T04:39:01.385Z,2.30
2018-12-15T04:41:38.761Z,2.20
2018-12-15T04:44:15.977Z,2.53
2018-12-15T04:47:01.620Z,2.53
2018-12-15T04:49:38.777Z,2.80
2018-12-15T04:57:27.536Z,2.60
2018-12-15T05:11:00.499Z,2.47
2018-12-15T05:13:37.284Z,2.03
2018-12-15T05:16:22.190Z,2.73
2018-12-15T05:19:06.828Z,2.80
2018-12-15T05:21:43.316Z,2.93
2018-12-15T05:24:19.927Z,2.63
2018-12-15T05:27:03.328Z,3.23
2018-12-15T05:29:40.400Z,2.90
2018-12-15T05:32:17.330Z,3.03
2018-12-15T05:35:00.558Z,3.10
2018-12-15T05:37:37.367Z,3.10
2018-12-15T05:40:14.350Z,2.80
2018-12-15T05:42:59.188Z,2.97
2018-12-15T05:45:38.633Z,2.73
2018-12-15T05:48:15.688Z,2.90
2018-12-15T05:51:01.261Z,2.70
2018-12-15T05:53:38.440Z,3.37
2018-12-15T05:56:14.928Z,2.80
2018-12-15T05:58:59.681Z,3.30
2018-12-15T06:01:36.990Z,2.90
2018-12-15T06:04:13.661Z,3.00
2018-12-15T06:09:59.295Z,2.73
2018-12-15T06:12:36.961Z,3.20
2018-12-15T06:15:16.383Z,3.10
2018-12-15T06:17:53.057Z,2.80
2018-12-15T06:20:28.708Z,3.07
2018-12-15T06:23:05.631Z,2.43
2018-12-15T06:25:44.278Z,2.60
2018-12-15T06:28:22.598Z,2.80
2018-12-15T06:30:59.161Z,3.30
2018-12-15T06:33:35.996Z,3.37
2018-12-15T06:36:12.628Z,3.10
2018-12-15T06:38:47.283Z,3.30
2018-12-15T06:41:24.924Z,3.20
2018-12-15T06:44:01.983Z,3.37
2018-12-15T06:46:46.710Z,3.30
2018-12-15T06:49:19.923Z,3.17
2018-12-15T06:51:56.863Z,3.40
2018-12-15T06:54:34.235Z,3.30
2018-12-15T07:00:12.181Z,3.03
2018-12-15T07:02:57.268Z,3.17
2018-12-15T07:05:42.715Z,2.90
2018-12-15T07:08:32.896Z,3.30
2018-12-15T07:11:11.312Z,2.97
2018-12-15T07:13:56.445Z,3.40
2018-12-15T07:16:43.840Z,2.67
2018-12-15T07:19:16.739Z,3.50
2018-12-15T07:21:52.958Z,3.20
2018-12-15T07:24:29.422Z,3.17
2018-12-15T07:27:05.930Z,3.17
2018-12-15T07:29:42.557Z,3.03
2018-12-15T07:32:19.130Z,3.10
2018-12-15T07:34:53.664Z,2.90
2018-12-15T07:37:26.165Z,2.83
2018-12-15T07:40:02.511Z,2.90
2018-12-15T07:42:39.171Z,3.10
2018-12-15T07:45:11.533Z,3.00
2018-12-15T07:47:49.772Z,3.03
2018-12-15T07:50:26.392Z,3.97
2018-12-15T07:53:03.114Z,3.43
2018-12-15T07:55:37.682Z,3.90
2018-12-15T07:58:14.505Z,3.40
2018-12-15T08:00:51.125Z,3.40
2018-12-15T08:03:27.833Z,3.30
2018-12-15T08:06:04.485Z,3.40
2018-12-15T08:08:41.030Z,3.33
2018-12-15T08:11:21.242Z,3.50
2018-12-15T08:14:04.047Z,3.20
2018-12-15T08:16:40.935Z,4.93
2018-12-15T08:19:17.962Z,6.43
2018-12-15T08:21:55.068Z,9.07
2018-12-15T08:24:31.921Z,6.57
2018-12-15T08:34:56.337Z,5.17
2018-12-15T08:48:15.660Z,8.93
2018-12-15T08:50:52.735Z,8.23
2018-12-15T08:53:30.985Z,5.40
2018-12-15T08:56:09.750Z,7.00
2018-12-15T08:58:46.900Z,6.37
2018-12-15T09:01:23.825Z,5.77
2018-12-15T09:04:00.465Z,5.90
2018-12-15T09:06:37.264Z,4.50
2018-12-15T09:09:14.010Z,3.87
2018-12-15T09:11:50.846Z,4.23
2018-12-15T09:14:25.402Z,6.20
2018-12-15T09:17:10.503Z,5.97
2018-12-15T09:19:47.855Z,3.20
2018-12-15T09:22:24.509Z,3.20
2018-12-15T09:25:01.219Z,3.63
2018-12-15T09:27:39.061Z,4.10
2018-12-15T09:30:15.592Z,3.00
2018-12-15T09:32:50.152Z,4.10
2018-12-15T09:35:26.937Z,4.30
2018-12-15T09:38:03.719Z,4.30
2018-12-15T09:40:40.681Z,3.00
2018-12-15T09:43:19.168Z,4.20
2018-12-15T09:45:55.841Z,3.13
2018-12-15T09:48:26.461Z,3.70
2018-12-15T09:51:03.269Z,3.50
2018-12-15T09:53:39.864Z,2.70
2018-12-15T09:56:17.410Z,3.90
2018-12-15T09:58:52.068Z,4.03
2018-12-15T10:01:29.073Z,6.30
2018-12-15T10:04:05.136Z,3.67
2018-12-15T10:06:44.124Z,3.70
2018-12-15T10:09:22.464Z,2.67
2018-12-15T10:12:01.193Z,3.13
2018-12-15T10:14:37.904Z,3.20
2018-12-15T10:17:14.673Z,3.77
2018-12-15T10:19:51.448Z,4.10
2018-12-15T10:22:28.024Z,2.90
2018-12-15T10:25:04.947Z,3.73
2018-12-15T10:27:39.542Z,2.50
2018-12-15T10:30:22.943Z,3.70
2018-12-15T10:33:01.910Z,3.07
2018-12-15T10:35:38.173Z,3.00
2018-12-15T10:38:14.678Z,3.10
2018-12-15T10:40:51.974Z,3.03
2018-12-15T10:43:28.566Z,3.83
2018-12-15T10:46:05.361Z,4.10
2018-12-15T10:48:44.196Z,4.50
2018-12-15T10:54:21.914Z,4.10
2018-12-15T10:56:58.456Z,4.60
2018-12-15T10:59:34.792Z,5.33
2018-12-15T11:02:11.989Z,4.50
2018-12-15T11:04:48.326Z,7.60
2018-12-15T11:07:25.339Z,5.10
2018-12-15T11:10:02.186Z,4.70
2018-12-15T11:15:32.555Z,5.37
2018-12-15T11:18:17.522Z,2.90
2018-12-15T11:20:53.657Z,4.63
2018-12-15T11:23:30.437Z,3.63
2018-12-15T11:26:07.159Z,5.33
2018-12-15T11:28:43.629Z,5.53
2018-12-15T11:31:20.549Z,4.50
2018-12-15T11:33:57.215Z,3.60
2018-12-15T11:36:33.681Z,3.73
2018-12-15T11:39:10.301Z,5.70
2018-12-15T11:41:47.860Z,5.00
2018-12-15T11:44:24.588Z,4.53
2018-12-15T11:49:56.115Z,5.27
2018-12-15T11:52:28.357Z,6.70
2018-12-15T11:55:04.535Z,8.20
2018-12-15T11:57:41.127Z,7.80
2018-12-15T12:00:17.729Z,4.37
2018-12-15T12:02:54.277Z,4.40
2018-12-15T12:05:30.984Z,5.83
2018-12-15T12:08:07.760Z,5.50
2018-12-15T12:10:42.363Z,5.50
2018-12-15T12:13:19.047Z,4.30
2018-12-15T12:15:55.875Z,5.10
2018-12-15T12:18:34.373Z,4.40
2018-12-15T12:21:11.184Z,5.17
2018-12-15T12:23:47.816Z,5.90
2018-12-15T12:26:26.956Z,5.13
2018-12-15T12:29:03.655Z,6.20
2018-12-15T12:31:41.322Z,5.13
2018-12-15T12:34:17.875Z,4.13
2018-12-15T12:36:54.649Z,3.80
2018-12-15T12:39:31.532Z,6.00
2018-12-15T12:42:09.714Z,3.83
2018-12-15T12:44:46.139Z,2.97
2018-12-15T12:50:25.084Z,3.50
2018-12-15T12:53:02.591Z,4.10
2018-12-15T12:55:40.328Z,5.13
2018-12-15T12:58:18.482Z,4.00
2018-12-15T13:00:55.201Z,3.77
2018-12-15T13:03:32.569Z,3.20
2018-12-15T13:06:10.034Z,3.33
2018-12-15T13:08:49.147Z,3.90
2018-12-15T13:11:25.981Z,2.47
2018-12-15T13:14:02.653Z,3.33
2018-12-15T13:16:39.388Z,3.20
2018-12-15T13:19:17.314Z,3.57
2018-12-15T13:21:57.974Z,4.10
2018-12-15T13:24:32.386Z,5.10
2018-12-15T13:27:08.982Z,3.87
2018-12-15T13:29:45.671Z,3.80
2018-12-15T13:32:24.373Z,4.43
2018-12-15T13:35:01.068Z,4.00
2018-12-15T13:37:37.677Z,3.77
2018-12-15T13:40:12.478Z,4.93
2018-12-15T13:42:49.212Z,2.83
2018-12-15T13:45:23.983Z,3.40
2018-12-15T13:48:00.595Z,4.90
2018-12-15T13:50:38.000Z,4.10
2018-12-15T13:53:16.148Z,3.20
2018-12-15T13:55:51.109Z,3.90
2018-12-15T13:58:25.757Z,3.60
2018-12-15T14:01:00.692Z,2.93
2018-12-15T14:03:37.225Z,4.27
2018-12-15T14:06:13.047Z,7.23
2018-12-15T14:08:47.697Z,5.00
2018-12-15T14:11:24.492Z,11.07
2018-12-15T14:13:59.378Z,4.70
2018-12-15T14:16:34.545Z,7.10
2018-12-15T14:19:11.055Z,9.50
2018-12-15T14:21:48.134Z,12.77
2018-12-15T14:24:26.410Z,15.10
2018-12-15T14:27:02.269Z,3.50
2018-12-15T14:29:37.117Z,5.30
2018-12-15T14:32:13.841Z,8.17
2018-12-15T14:34:48.564Z,6.60
2018-12-15T14:37:25.556Z,4.47
2018-12-15T14:40:02.113Z,3.77
2018-12-15T14:42:39.752Z,4.70
2018-12-15T14:45:12.189Z,7.53
2018-12-15T14:47:50.354Z,6.50
2018-12-15T14:50:27.889Z,5.90
2018-12-15T14:53:03.662Z,7.07
2018-12-15T14:55:38.257Z,6.00
2018-12-15T14:58:15.072Z,7.43
2018-12-15T15:00:51.742Z,6.30
2018-12-15T15:03:29.122Z,4.53
2018-12-15T15:06:10.317Z,6.30
2018-12-15T15:08:46.623Z,5.33
2018-12-15T15:11:23.312Z,4.40
2018-12-15T15:14:00.892Z,5.00
2018-12-15T15:16:37.609Z,5.00
2018-12-15T15:19:14.019Z,6.17
2018-12-15T15:21:51.199Z,6.63
2018-12-15T15:24:26.159Z,6.60
2018-12-15T15:27:01.686Z,7.93
2018-12-15T15:29:38.310Z,6.70
2018-12-15T15:32:13.262Z,6.27
2018-12-15T15:34:49.914Z,7.23
2018-12-15T15:37:25.535Z,9.40
2018-12-15T15:40:02.570Z,6.60
2018-12-15T15:42:38.924Z,7.00
2018-12-15T15:45:14.161Z,8.50
2018-12-15T15:47:49.323Z,6.10
2018-12-15T15:50:24.045Z,5.53
2018-12-15T15:52:59.787Z,7.07
2018-12-15T15:55:37.286Z,4.07
2018-12-15T15:58:13.397Z,3.77
2018-12-15T16:00:48.068Z,3.93
2018-12-15T16:03:22.511Z,4.70
2018-12-15T16:05:59.315Z,5.37
2018-12-15T16:08:34.047Z,3.57
2018-12-15T16:11:08.561Z,6.30
2018-12-15T16:13:43.730Z,3.20
2018-12-15T16:16:24.524Z,3.73
2018-12-15T16:18:59.076Z,6.17
2018-12-15T16:21:33.919Z,7.57
2018-12-15T16:24:10.111Z,4.40
2018-12-15T16:26:46.866Z,5.47
2018-12-15T16:29:23.554Z,6.30
2018-12-15T16:31:58.275Z,5.53
2018-12-15T16:34:35.169Z,5.63
2018-12-15T16:40:20.623Z,4.73
2018-12-15T16:42:59.029Z,5.43
2018-12-15T16:45:37.809Z,6.67
2018-12-15T16:48:12.680Z,4.63
2018-12-15T16:50:50.152Z,4.87
2018-12-15T16:53:22.427Z,6.50
2018-12-15T16:55:57.377Z,6.47
2018-12-15T16:58:33.900Z,5.90
2018-12-15T17:01:08.662Z,6.30
2018-12-15T17:03:45.619Z,4.17
2018-12-15T17:06:22.185Z,4.90
2018-12-15T17:08:56.782Z,4.40
2018-12-15T17:11:31.256Z,5.00
2018-12-15T17:14:06.227Z,6.63
2018-12-15T17:16:43.763Z,7.33
2018-12-15T17:19:16.402Z,7.07
2018-12-15T17:21:53.082Z,8.23
2018-12-15T17:24:27.795Z,9.57
2018-12-15T17:27:00.262Z,6.17
2018-12-15T17:29:35.191Z,6.60
2018-12-15T17:32:07.590Z,7.90
2018-12-15T17:34:40.442Z,7.53
2018-12-15T17:37:12.597Z,8.47
2018-12-15T17:39:47.434Z,8.33
2018-12-15T17:42:19.640Z,7.33
2018-12-15T17:44:51.714Z,4.43
2018-12-15T17:47:43.157Z,6.00
2018-12-15T17:50:16.817Z,5.73
2018-12-15T17:52:50.470Z,6.63
2018-12-15T17:55:23.270Z,4.93
2018-12-15T17:57:55.170Z,6.17
2018-12-15T18:00:27.127Z,4.87
2018-12-15T18:02:59.889Z,5.47
2018-12-15T18:05:32.465Z,5.43
2018-12-15T18:11:02.921Z,4.70
2018-12-15T18:13:37.923Z,4.57
2018-12-15T18:16:10.180Z,4.60
2018-12-15T18:18:42.650Z,5.40
2018-12-15T18:21:15.260Z,6.10
2018-12-15T18:23:48.340Z,4.83
2018-12-15T18:26:25.170Z,8.60
2018-12-15T18:28:55.221Z,10.00
2018-12-15T18:31:27.046Z,5.70
2018-12-15T18:33:59.750Z,7.67
2018-12-15T18:36:32.367Z,8.63
2018-12-15T18:39:06.809Z,7.50
2018-12-15T18:41:40.815Z,7.30
2018-12-15T18:44:14.454Z,13.63
2018-12-15T18:46:47.159Z,4.40
2018-12-15T18:49:19.891Z,4.57
2018-12-15T18:51:51.906Z,4.83
2018-12-15T18:54:24.622Z,5.30
2018-12-15T18:56:57.527Z,4.43
2018-12-15T18:59:30.350Z,4.23
2018-12-15T19:02:03.009Z,4.47
2018-12-15T19:04:33.802Z,4.83
2018-12-15T19:07:06.470Z,5.00
2018-12-15T19:09:40.155Z,5.07
2018-12-15T19:12:12.004Z,5.43
2018-12-15T19:14:43.920Z,5.90
2018-12-15T19:17:16.498Z,6.43
2018-12-15T19:19:49.094Z,9.97
2018-12-15T19:22:21.157Z,8.43
2018-12-15T19:24:54.391Z,9.27
2018-12-15T19:27:27.540Z,9.33
2018-12-15T19:29:59.403Z,9.67
2018-12-15T19:32:34.415Z,9.53
2018-12-15T19:35:09.013Z,8.73
2018-12-15T19:37:39.742Z,10.47
2018-12-15T19:40:13.355Z,9.17
2018-12-15T19:42:44.142Z,10.20
2018-12-15T19:45:18.711Z,8.97
2018-12-15T19:47:56.342Z,7.13
2018-12-15T19:50:28.362Z,6.70
2018-12-15T19:52:59.322Z,8.03
2018-12-15T19:55:31.829Z,5.70
2018-12-15T19:58:03.877Z,6.57
2018-12-15T20:00:36.469Z,6.30
2018-12-15T20:03:09.199Z,6.30
2018-12-15T20:05:41.046Z,6.23
2018-12-15T20:08:13.890Z,8.03
2018-12-15T20:10:46.708Z,7.53
2018-12-15T20:13:19.417Z,8.07
2018-12-15T20:15:54.300Z,7.27
2018-12-15T20:18:26.802Z,8.87
2018-12-15T20:21:04.017Z,8.00
2018-12-15T20:23:39.380Z,8.07
2018-12-15T20:26:12.834Z,8.07
2018-12-15T20:28:44.997Z,8.70
2018-12-15T20:31:17.613Z,9.40
2018-12-15T20:33:50.546Z,9.73
2018-12-15T20:36:25.357Z,11.10
2018-12-15T20:39:01.735Z,12.47
2018-12-15T20:41:41.217Z,11.10
2018-12-15T20:44:18.553Z,8.93
2018-12-15T20:46:53.714Z,8.13
2018-12-15T20:49:30.546Z,7.63
2018-12-15T20:52:07.813Z,6.83
2018-12-15T20:54:42.310Z,7.57
2018-12-15T20:57:18.595Z,6.90
2018-12-15T20:59:51.796Z,7.43
2018-12-15T21:02:23.892Z,6.17
2018-12-15T21:08:01.934Z,5.07
2018-12-15T21:10:47.508Z,5.50
2018-12-15T21:13:24.085Z,4.43
2018-12-15T21:16:00.031Z,6.43
2018-12-15T21:18:34.374Z,11.33
2018-12-15T21:21:11.918Z,8.67
2018-12-15T21:23:45.593Z,9.60
2018-12-15T21:26:17.199Z,8.77
2018-12-15T21:28:49.476Z,9.20
2018-12-15T21:31:22.696Z,7.07
2018-12-15T21:33:54.768Z,7.47
2018-12-15T21:36:28.078Z,7.93
2018-12-15T21:39:00.512Z,7.80
2018-12-15T21:41:35.455Z,9.30
2018-12-15T21:44:10.075Z,16.70
2018-12-15T21:46:42.820Z,12.40
2018-12-15T21:49:13.190Z,8.17
2018-12-15T21:51:56.140Z,7.40
2018-12-15T21:54:29.193Z,6.53
2018-12-15T21:57:01.622Z,7.07
2018-12-15T21:59:38.753Z,6.80
2018-12-15T22:02:15.328Z,6.33
2018-12-15T22:04:52.113Z,6.40
2018-12-15T22:07:28.798Z,7.27
2018-12-15T22:16:06.981Z,10.63
2018-12-15T22:18:44.721Z,7.67
2018-12-15T22:21:21.729Z,8.40
2018-12-15T22:26:59.278Z,7.97
2018-12-15T22:29:35.989Z,8.27
2018-12-15T22:32:12.762Z,7.80
2018-12-15T22:34:49.681Z,8.33
2018-12-15T22:37:26.515Z,8.03
2018-12-15T22:40:03.515Z,8.07
2018-12-15T22:42:42.070Z,8.67
2018-12-15T22:45:18.914Z,7.37
2018-12-15T22:47:53.820Z,7.23
2018-12-15T22:50:30.537Z,7.77
2018-12-15T22:53:07.261Z,7.50
2018-12-15T22:55:44.279Z,7.90
2018-12-15T22:58:21.015Z,9.03
2018-12-15T23:01:08.016Z,9.30
2018-12-15T23:03:46.907Z,11.37
2018-12-15T23:06:23.967Z,9.97
2018-12-15T23:08:58.559Z,9.87
2018-12-15T23:11:35.249Z,9.33
2018-12-15T23:14:12.002Z,10.27
2018-12-15T23:16:47.078Z,10.30
2018-12-15T23:19:23.614Z,10.20
2018-12-15T23:22:00.678Z,9.87
2018-12-15T23:24:37.282Z,10.70
2018-12-15T23:27:11.814Z,8.80
2018-12-15T23:29:44.483Z,8.03
2018-12-15T23:32:25.114Z,8.13
2018-12-15T23:34:57.114Z,7.93
2018-12-15T23:37:29.911Z,8.47
2018-12-15T23:40:02.234Z,8.70
2018-12-15T23:45:41.212Z,8.10
2018-12-15T23:48:22.081Z,7.80
2018-12-15T23:51:00.659Z,8.53
2018-12-15T23:53:47.935Z,8.80
2018-12-15T23:59:25.846Z,8.37
